sensor_id;sensor_type;location;lat;lon;timestamp;P1;durP1;ratioP1;P2;durP2;ratioP2
10705;SDS011;5404;42.656;23.336;2023-03-01T00:02:07;6.90;;;5.00;;
10705;SDS011;5404;42.656;23.336;2023-03-01T00:04:33;8.18;;;4.90;;
10705;SDS011;5404;42.656;23.336;2023-03-01T00:07:00;7.40;;;4.72;;
10705;SDS011;5404;42.656;23.336;2023-03-01T00:09:26;6.80;;;4.72;;
10705;SDS011;5404;42.656;23.336;2023-03-01T00:11:51;6.72;;;4.95;;
10705;SDS011;5404;42.656;23.336;2023-03-01T00:14:17;7.22;;;4.75;;
10705;SDS011;5404;42.656;23.336;2023-03-01T00:16:44;7.40;;;4.95;;
10705;SDS011;5404;42.656;23.336;2023-03-01T00:19:11;8.40;;;5.03;;
10705;SDS011;5404;42.656;23.336;2023-03-01T00:21:39;7.05;;;5.05;;
10705;SDS011;5404;42.656;23.336;2023-03-01T00:24:08;7.50;;;4.97;;
10705;SDS011;5404;42.656;23.336;2023-03-01T00:26:34;7.25;;;4.63;;
10705;SDS011;5404;42.656;23.336;2023-03-01T00:28:59;6.85;;;4.25;;
10705;SDS011;5404;42.656;23.336;2023-03-01T00:31:27;6.57;;;4.68;;
10705;SDS011;5404;42.656;23.336;2023-03-01T00:33:58;7.07;;;4.63;;
10705;SDS011;5404;42.656;23.336;2023-03-01T00:36:26;6.10;;;4.45;;
10705;SDS011;5404;42.656;23.336;2023-03-01T00:39:04;10.60;;;5.00;;
10705;SDS011;5404;42.656;23.336;2023-03-01T00:41:34;6.85;;;4.88;;
10705;SDS011;5404;42.656;23.336;2023-03-01T00:44:00;6.05;;;4.38;;
10705;SDS011;5404;42.656;23.336;2023-03-01T00:46:26;7.07;;;4.60;;
10705;SDS011;5404;42.656;23.336;2023-03-01T00:48:52;5.78;;;4.15;;
10705;SDS011;5404;42.656;23.336;2023-03-01T00:51:20;6.22;;;4.00;;
10705;SDS011;5404;42.656;23.336;2023-03-01T00:53:47;7.05;;;4.40;;
10705;SDS011;5404;42.656;23.336;2023-03-01T00:56:17;4.72;;;3.60;;
10705;SDS011;5404;42.656;23.336;2023-03-01T00:58:42;7.25;;;4.40;;
10705;SDS011;5404;42.656;23.336;2023-03-01T01:01:09;7.80;;;4.97;;
10705;SDS011;5404;42.656;23.336;2023-03-01T01:03:45;5.05;;;4.07;;
10705;SDS011;5404;42.656;23.336;2023-03-01T01:06:17;7.03;;;4.07;;
10705;SDS011;5404;42.656;23.336;2023-03-01T01:08:45;6.72;;;3.85;;
10705;SDS011;5404;42.656;23.336;2023-03-01T01:11:12;4.13;;;2.85;;
10705;SDS011;5404;42.656;23.336;2023-03-01T01:13:38;5.50;;;4.15;;
10705;SDS011;5404;42.656;23.336;2023-03-01T01:16:04;4.53;;;3.97;;
10705;SDS011;5404;42.656;23.336;2023-03-01T01:18:30;3.83;;;3.25;;
10705;SDS011;5404;42.656;23.336;2023-03-01T01:20:56;3.08;;;2.55;;
10705;SDS011;5404;42.656;23.336;2023-03-01T01:23:22;3.83;;;2.78;;
10705;SDS011;5404;42.656;23.336;2023-03-01T01:25:48;5.97;;;3.10;;
10705;SDS011;5404;42.656;23.336;2023-03-01T01:28:13;5.93;;;2.58;;
10705;SDS011;5404;42.656;23.336;2023-03-01T01:30:39;3.70;;;3.08;;
10705;SDS011;5404;42.656;23.336;2023-03-01T01:33:04;4.57;;;3.40;;
10705;SDS011;5404;42.656;23.336;2023-03-01T01:35:31;3.30;;;2.55;;
10705;SDS011;5404;42.656;23.336;2023-03-01T01:37:56;4.35;;;3.00;;
10705;SDS011;5404;42.656;23.336;2023-03-01T01:40:22;3.72;;;3.08;;
10705;SDS011;5404;42.656;23.336;2023-03-01T01:42:48;4.57;;;3.00;;
10705;SDS011;5404;42.656;23.336;2023-03-01T01:45:33;2.83;;;2.50;;
10705;SDS011;5404;42.656;23.336;2023-03-01T01:48:04;2.38;;;1.80;;
10705;SDS011;5404;42.656;23.336;2023-03-01T01:50:35;2.67;;;2.45;;
10705;SDS011;5404;42.656;23.336;2023-03-01T01:53:05;3.65;;;2.70;;
10705;SDS011;5404;42.656;23.336;2023-03-01T01:55:34;4.50;;;2.83;;
10705;SDS011;5404;42.656;23.336;2023-03-01T01:58:02;4.22;;;2.55;;
10705;SDS011;5404;42.656;23.336;2023-03-01T02:00:31;3.00;;;2.70;;
10705;SDS011;5404;42.656;23.336;2023-03-01T02:03:20;3.63;;;2.83;;
10705;SDS011;5404;42.656;23.336;2023-03-01T02:05:56;3.67;;;2.20;;
10705;SDS011;5404;42.656;23.336;2023-03-01T02:08:29;3.58;;;2.63;;
10705;SDS011;5404;42.656;23.336;2023-03-01T02:10:59;2.50;;;2.30;;
10705;SDS011;5404;42.656;23.336;2023-03-01T02:13:26;2.92;;;2.60;;
10705;SDS011;5404;42.656;23.336;2023-03-01T02:15:52;3.35;;;2.78;;
10705;SDS011;5404;42.656;23.336;2023-03-01T02:18:20;8.40;;;2.72;;
10705;SDS011;5404;42.656;23.336;2023-03-01T02:20:59;3.45;;;2.55;;
10705;SDS011;5404;42.656;23.336;2023-03-01T02:23:30;3.22;;;2.35;;
10705;SDS011;5404;42.656;23.336;2023-03-01T02:26:06;3.35;;;2.75;;
10705;SDS011;5404;42.656;23.336;2023-03-01T02:28:38;3.05;;;2.50;;
10705;SDS011;5404;42.656;23.336;2023-03-01T02:31:09;3.33;;;2.70;;
10705;SDS011;5404;42.656;23.336;2023-03-01T02:33:55;2.80;;;2.50;;
10705;SDS011;5404;42.656;23.336;2023-03-01T02:36:26;3.23;;;2.60;;
10705;SDS011;5404;42.656;23.336;2023-03-01T02:38:56;3.08;;;2.70;;
10705;SDS011;5404;42.656;23.336;2023-03-01T02:41:28;3.45;;;2.95;;
10705;SDS011;5404;42.656;23.336;2023-03-01T02:43:56;3.30;;;3.00;;
10705;SDS011;5404;42.656;23.336;2023-03-01T02:46:23;3.75;;;3.38;;
10705;SDS011;5404;42.656;23.336;2023-03-01T02:48:51;4.38;;;3.20;;
10705;SDS011;5404;42.656;23.336;2023-03-01T02:56:57;3.60;;;3.30;;
10705;SDS011;5404;42.656;23.336;2023-03-01T02:59:24;4.70;;;3.92;;
10705;SDS011;5404;42.656;23.336;2023-03-01T03:01:54;7.30;;;5.38;;
10705;SDS011;5404;42.656;23.336;2023-03-01T03:04:20;10.85;;;7.30;;
10705;SDS011;5404;42.656;23.336;2023-03-01T03:06:47;11.05;;;8.27;;
10705;SDS011;5404;42.656;23.336;2023-03-01T03:09:15;10.52;;;7.40;;
10705;SDS011;5404;42.656;23.336;2023-03-01T03:11:41;10.80;;;7.22;;
10705;SDS011;5404;42.656;23.336;2023-03-01T03:14:10;10.07;;;6.68;;
10705;SDS011;5404;42.656;23.336;2023-03-01T03:19:15;10.10;;;6.50;;
10705;SDS011;5404;42.656;23.336;2023-03-01T03:21:42;9.00;;;6.10;;
10705;SDS011;5404;42.656;23.336;2023-03-01T03:24:08;9.68;;;6.57;;
10705;SDS011;5404;42.656;23.336;2023-03-01T03:26:34;10.40;;;7.43;;
10705;SDS011;5404;42.656;23.336;2023-03-01T03:29:00;12.30;;;7.75;;
10705;SDS011;5404;42.656;23.336;2023-03-01T03:31:26;11.57;;;7.13;;
10705;SDS011;5404;42.656;23.336;2023-03-01T03:33:52;10.75;;;6.60;;
10705;SDS011;5404;42.656;23.336;2023-03-01T03:36:21;11.75;;;7.07;;
10705;SDS011;5404;42.656;23.336;2023-03-01T03:38:48;10.15;;;6.80;;
10705;SDS011;5404;42.656;23.336;2023-03-01T03:41:14;10.27;;;6.28;;
10705;SDS011;5404;42.656;23.336;2023-03-01T03:46:24;9.55;;;6.47;;
10705;SDS011;5404;42.656;23.336;2023-03-01T03:48:51;7.38;;;5.13;;
10705;SDS011;5404;42.656;23.336;2023-03-01T03:51:16;7.88;;;4.97;;
10705;SDS011;5404;42.656;23.336;2023-03-01T03:53:43;6.78;;;4.25;;
10705;SDS011;5404;42.656;23.336;2023-03-01T03:56:10;8.07;;;3.67;;
10705;SDS011;5404;42.656;23.336;2023-03-01T04:01:21;6.95;;;4.28;;
10705;SDS011;5404;42.656;23.336;2023-03-01T04:03:48;13.68;;;6.03;;
10705;SDS011;5404;42.656;23.336;2023-03-01T04:06:19;14.00;;;7.47;;
10705;SDS011;5404;42.656;23.336;2023-03-01T04:08:45;5.72;;;4.20;;
10705;SDS011;5404;42.656;23.336;2023-03-01T04:11:10;5.15;;;3.70;;
10705;SDS011;5404;42.656;23.336;2023-03-01T04:13:52;5.70;;;4.25;;
10705;SDS011;5404;42.656;23.336;2023-03-01T04:16:19;7.45;;;4.78;;
10705;SDS011;5404;42.656;23.336;2023-03-01T04:18:45;5.18;;;4.05;;
10705;SDS011;5404;42.656;23.336;2023-03-01T04:21:11;9.10;;;4.65;;
10705;SDS011;5404;42.656;23.336;2023-03-01T04:23:37;5.75;;;4.20;;
10705;SDS011;5404;42.656;23.336;2023-03-01T04:26:04;5.63;;;3.83;;
10705;SDS011;5404;42.656;23.336;2023-03-01T04:28:30;7.45;;;4.22;;
10705;SDS011;5404;42.656;23.336;2023-03-01T04:31:07;6.20;;;4.40;;
10705;SDS011;5404;42.656;23.336;2023-03-01T04:33:45;6.68;;;4.30;;
10705;SDS011;5404;42.656;23.336;2023-03-01T04:36:12;7.28;;;3.97;;
10705;SDS011;5404;42.656;23.336;2023-03-01T04:38:39;8.52;;;4.60;;
10705;SDS011;5404;42.656;23.336;2023-03-01T04:41:06;9.13;;;4.40;;
10705;SDS011;5404;42.656;23.336;2023-03-01T04:43:33;8.52;;;4.53;;
10705;SDS011;5404;42.656;23.336;2023-03-01T04:46:06;6.68;;;4.18;;
10705;SDS011;5404;42.656;23.336;2023-03-01T04:48:34;8.25;;;4.68;;
10705;SDS011;5404;42.656;23.336;2023-03-01T04:51:02;9.10;;;4.40;;
10705;SDS011;5404;42.656;23.336;2023-03-01T04:53:28;5.00;;;4.05;;
10705;SDS011;5404;42.656;23.336;2023-03-01T04:55:56;7.03;;;3.92;;
10705;SDS011;5404;42.656;23.336;2023-03-01T04:58:25;7.65;;;4.07;;
10705;SDS011;5404;42.656;23.336;2023-03-01T05:00:51;6.03;;;4.28;;
10705;SDS011;5404;42.656;23.336;2023-03-01T05:03:18;7.68;;;4.25;;
10705;SDS011;5404;42.656;23.336;2023-03-01T05:05:45;8.85;;;4.85;;
10705;SDS011;5404;42.656;23.336;2023-03-01T05:08:12;7.40;;;4.60;;
10705;SDS011;5404;42.656;23.336;2023-03-01T05:10:43;7.25;;;4.80;;
10705;SDS011;5404;42.656;23.336;2023-03-01T05:13:11;7.88;;;4.93;;
10705;SDS011;5404;42.656;23.336;2023-03-01T05:15:40;6.80;;;4.13;;
10705;SDS011;5404;42.656;23.336;2023-03-01T05:18:05;9.65;;;5.35;;
10705;SDS011;5404;42.656;23.336;2023-03-01T05:20:36;7.25;;;4.32;;
10705;SDS011;5404;42.656;23.336;2023-03-01T05:23:04;4.63;;;3.50;;
10705;SDS011;5404;42.656;23.336;2023-03-01T05:25:30;10.48;;;4.88;;
10705;SDS011;5404;42.656;23.336;2023-03-01T05:27:58;6.00;;;3.92;;
10705;SDS011;5404;42.656;23.336;2023-03-01T05:30:31;6.18;;;3.90;;
10705;SDS011;5404;42.656;23.336;2023-03-01T05:32:58;5.57;;;4.22;;
10705;SDS011;5404;42.656;23.336;2023-03-01T05:35:23;6.68;;;4.13;;
10705;SDS011;5404;42.656;23.336;2023-03-01T05:37:49;9.88;;;4.60;;
10705;SDS011;5404;42.656;23.336;2023-03-01T05:40:17;6.22;;;4.00;;
10705;SDS011;5404;42.656;23.336;2023-03-01T05:45:15;10.55;;;4.55;;
10705;SDS011;5404;42.656;23.336;2023-03-01T05:47:43;6.22;;;4.60;;
10705;SDS011;5404;42.656;23.336;2023-03-01T05:50:11;5.13;;;3.83;;
10705;SDS011;5404;42.656;23.336;2023-03-01T05:52:37;6.13;;;3.72;;
10705;SDS011;5404;42.656;23.336;2023-03-01T05:55:04;4.63;;;3.15;;
10705;SDS011;5404;42.656;23.336;2023-03-01T05:57:29;7.38;;;4.00;;
10705;SDS011;5404;42.656;23.336;2023-03-01T05:59:55;5.68;;;3.70;;
10705;SDS011;5404;42.656;23.336;2023-03-01T06:02:20;7.93;;;3.35;;
10705;SDS011;5404;42.656;23.336;2023-03-01T06:04:49;6.13;;;3.58;;
10705;SDS011;5404;42.656;23.336;2023-03-01T06:07:14;5.85;;;3.65;;
10705;SDS011;5404;42.656;23.336;2023-03-01T06:09:39;4.53;;;3.20;;
10705;SDS011;5404;42.656;23.336;2023-03-01T06:12:07;4.38;;;3.88;;
10705;SDS011;5404;42.656;23.336;2023-03-01T06:14:33;5.45;;;3.67;;
10705;SDS011;5404;42.656;23.336;2023-03-01T06:16:58;4.68;;;3.47;;
10705;SDS011;5404;42.656;23.336;2023-03-01T06:19:24;4.95;;;3.50;;
10705;SDS011;5404;42.656;23.336;2023-03-01T06:21:49;7.18;;;3.70;;
10705;SDS011;5404;42.656;23.336;2023-03-01T06:24:16;4.60;;;3.45;;
10705;SDS011;5404;42.656;23.336;2023-03-01T06:26:42;6.80;;;3.97;;
10705;SDS011;5404;42.656;23.336;2023-03-01T06:29:07;8.30;;;3.55;;
10705;SDS011;5404;42.656;23.336;2023-03-01T06:31:33;9.60;;;3.92;;
10705;SDS011;5404;42.656;23.336;2023-03-01T06:33:59;6.57;;;3.38;;
10705;SDS011;5404;42.656;23.336;2023-03-01T06:36:26;4.60;;;3.70;;
10705;SDS011;5404;42.656;23.336;2023-03-01T06:38:51;6.18;;;3.53;;
10705;SDS011;5404;42.656;23.336;2023-03-01T06:41:16;5.63;;;3.47;;
10705;SDS011;5404;42.656;23.336;2023-03-01T06:43:42;9.93;;;6.65;;
10705;SDS011;5404;42.656;23.336;2023-03-01T06:46:07;11.00;;;5.20;;
10705;SDS011;5404;42.656;23.336;2023-03-01T06:48:33;7.35;;;4.43;;
10705;SDS011;5404;42.656;23.336;2023-03-01T06:50:59;14.43;;;3.75;;
10705;SDS011;5404;42.656;23.336;2023-03-01T06:53:27;8.82;;;5.05;;
10705;SDS011;5404;42.656;23.336;2023-03-01T06:55:58;4.93;;;3.40;;
10705;SDS011;5404;42.656;23.336;2023-03-01T06:58:25;7.75;;;3.58;;
10705;SDS011;5404;42.656;23.336;2023-03-01T07:00:50;5.68;;;3.15;;
10705;SDS011;5404;42.656;23.336;2023-03-01T07:03:17;6.47;;;3.55;;
10705;SDS011;5404;42.656;23.336;2023-03-01T07:05:43;5.18;;;3.60;;
10705;SDS011;5404;42.656;23.336;2023-03-01T07:08:09;7.00;;;3.38;;
10705;SDS011;5404;42.656;23.336;2023-03-01T07:10:35;5.22;;;3.78;;
10705;SDS011;5404;42.656;23.336;2023-03-01T07:13:00;12.05;;;3.85;;
10705;SDS011;5404;42.656;23.336;2023-03-01T07:15:26;4.82;;;3.47;;
10705;SDS011;5404;42.656;23.336;2023-03-01T07:17:53;9.77;;;3.40;;
10705;SDS011;5404;42.656;23.336;2023-03-01T07:20:19;8.93;;;3.03;;
10705;SDS011;5404;42.656;23.336;2023-03-01T07:22:55;7.78;;;2.33;;
10705;SDS011;5404;42.656;23.336;2023-03-01T07:25:23;5.50;;;3.30;;
10705;SDS011;5404;42.656;23.336;2023-03-01T07:27:50;11.20;;;3.42;;
10705;SDS011;5404;42.656;23.336;2023-03-01T07:30:17;9.15;;;3.03;;
10705;SDS011;5404;42.656;23.336;2023-03-01T07:32:43;5.97;;;3.65;;
10705;SDS011;5404;42.656;23.336;2023-03-01T07:35:10;7.15;;;3.50;;
10705;SDS011;5404;42.656;23.336;2023-03-01T07:37:35;6.80;;;3.50;;
10705;SDS011;5404;42.656;23.336;2023-03-01T07:40:02;3.72;;;2.17;;
10705;SDS011;5404;42.656;23.336;2023-03-01T07:42:37;7.93;;;4.00;;
10705;SDS011;5404;42.656;23.336;2023-03-01T07:45:03;5.63;;;3.30;;
10705;SDS011;5404;42.656;23.336;2023-03-01T07:47:30;4.90;;;2.90;;
10705;SDS011;5404;42.656;23.336;2023-03-01T07:49:55;8.52;;;3.45;;
10705;SDS011;5404;42.656;23.336;2023-03-01T07:52:21;7.90;;;3.33;;
10705;SDS011;5404;42.656;23.336;2023-03-01T07:54:46;9.85;;;3.22;;
10705;SDS011;5404;42.656;23.336;2023-03-01T07:57:12;16.08;;;3.05;;
10705;SDS011;5404;42.656;23.336;2023-03-01T07:59:37;3.50;;;2.78;;
10705;SDS011;5404;42.656;23.336;2023-03-01T08:02:03;9.70;;;3.20;;
10705;SDS011;5404;42.656;23.336;2023-03-01T08:04:29;6.78;;;3.08;;
10705;SDS011;5404;42.656;23.336;2023-03-01T08:06:55;5.38;;;2.90;;
10705;SDS011;5404;42.656;23.336;2023-03-01T08:09:24;5.13;;;2.92;;
10705;SDS011;5404;42.656;23.336;2023-03-01T08:11:51;2.65;;;2.30;;
10705;SDS011;5404;42.656;23.336;2023-03-01T08:14:17;3.88;;;2.70;;
10705;SDS011;5404;42.656;23.336;2023-03-01T08:16:42;6.85;;;2.90;;
10705;SDS011;5404;42.656;23.336;2023-03-01T08:19:09;6.20;;;4.25;;
10705;SDS011;5404;42.656;23.336;2023-03-01T08:21:37;11.10;;;4.73;;
10705;SDS011;5404;42.656;23.336;2023-03-01T08:24:03;11.27;;;6.60;;
10705;SDS011;5404;42.656;23.336;2023-03-01T08:26:31;7.63;;;4.40;;
10705;SDS011;5404;42.656;23.336;2023-03-01T08:28:57;5.93;;;4.20;;
10705;SDS011;5404;42.656;23.336;2023-03-01T08:33:51;6.38;;;4.35;;
10705;SDS011;5404;42.656;23.336;2023-03-01T08:36:28;4.55;;;3.40;;
10705;SDS011;5404;42.656;23.336;2023-03-01T08:38:55;4.88;;;3.85;;
10705;SDS011;5404;42.656;23.336;2023-03-01T08:41:21;8.02;;;4.20;;
10705;SDS011;5404;42.656;23.336;2023-03-01T08:43:46;7.57;;;3.95;;
10705;SDS011;5404;42.656;23.336;2023-03-01T08:46:12;9.15;;;4.32;;
10705;SDS011;5404;42.656;23.336;2023-03-01T08:48:38;5.40;;;3.38;;
10705;SDS011;5404;42.656;23.336;2023-03-01T08:51:10;6.43;;;2.08;;
10705;SDS011;5404;42.656;23.336;2023-03-01T08:53:39;7.43;;;2.65;;
10705;SDS011;5404;42.656;23.336;2023-03-01T08:56:05;9.60;;;3.47;;
10705;SDS011;5404;42.656;23.336;2023-03-01T08:58:31;5.05;;;3.15;;
10705;SDS011;5404;42.656;23.336;2023-03-01T09:00:57;5.15;;;3.97;;
10705;SDS011;5404;42.656;23.336;2023-03-01T09:03:23;4.25;;;2.47;;
10705;SDS011;5404;42.656;23.336;2023-03-01T09:05:49;6.13;;;3.50;;
10705;SDS011;5404;42.656;23.336;2023-03-01T09:08:16;6.90;;;3.25;;
10705;SDS011;5404;42.656;23.336;2023-03-01T09:10:42;9.70;;;3.63;;
10705;SDS011;5404;42.656;23.336;2023-03-01T09:13:10;11.30;;;3.95;;
10705;SDS011;5404;42.656;23.336;2023-03-01T09:15:39;4.53;;;3.47;;
10705;SDS011;5404;42.656;23.336;2023-03-01T09:18:04;10.52;;;3.65;;
10705;SDS011;5404;42.656;23.336;2023-03-01T09:20:31;8.85;;;3.50;;
10705;SDS011;5404;42.656;23.336;2023-03-01T09:22:57;6.13;;;3.42;;
10705;SDS011;5404;42.656;23.336;2023-03-01T09:25:24;8.70;;;3.70;;
10705;SDS011;5404;42.656;23.336;2023-03-01T09:27:51;4.90;;;2.55;;
10705;SDS011;5404;42.656;23.336;2023-03-01T09:30:19;6.35;;;2.72;;
10705;SDS011;5404;42.656;23.336;2023-03-01T09:32:45;4.83;;;3.03;;
10705;SDS011;5404;42.656;23.336;2023-03-01T09:35:11;5.63;;;3.10;;
10705;SDS011;5404;42.656;23.336;2023-03-01T09:37:38;9.85;;;2.53;;
10705;SDS011;5404;42.656;23.336;2023-03-01T09:40:09;4.43;;;2.58;;
10705;SDS011;5404;42.656;23.336;2023-03-01T09:42:45;6.25;;;2.22;;
10705;SDS011;5404;42.656;23.336;2023-03-01T09:45:27;9.60;;;2.08;;
10705;SDS011;5404;42.656;23.336;2023-03-01T09:47:58;3.15;;;2.20;;
10705;SDS011;5404;42.656;23.336;2023-03-01T09:50:26;4.75;;;2.35;;
10705;SDS011;5404;42.656;23.336;2023-03-01T09:56:14;3.08;;;1.95;;
10705;SDS011;5404;42.656;23.336;2023-03-01T09:58:30;6.60;;;2.85;;
10705;SDS011;5404;42.656;23.336;2023-03-01T10:01:02;4.82;;;2.10;;
10705;SDS011;5404;42.656;23.336;2023-03-01T10:06:45;6.50;;;2.65;;
10705;SDS011;5404;42.656;23.336;2023-03-01T10:09:22;3.92;;;2.42;;
10705;SDS011;5404;42.656;23.336;2023-03-01T10:11:48;3.17;;;1.90;;
10705;SDS011;5404;42.656;23.336;2023-03-01T10:19:49;3.95;;;2.70;;
10705;SDS011;5404;42.656;23.336;2023-03-01T10:22:27;6.15;;;2.95;;
10705;SDS011;5404;42.656;23.336;2023-03-01T10:24:56;2.80;;;2.50;;
10705;SDS011;5404;42.656;23.336;2023-03-01T10:30:06;5.47;;;2.30;;
10705;SDS011;5404;42.656;23.336;2023-03-01T10:32:46;4.28;;;3.03;;
10705;SDS011;5404;42.656;23.336;2023-03-01T10:35:23;3.97;;;2.58;;
10705;SDS011;5404;42.656;23.336;2023-03-01T10:37:56;4.28;;;2.78;;
10705;SDS011;5404;42.656;23.336;2023-03-01T10:40:34;4.45;;;2.40;;
10705;SDS011;5404;42.656;23.336;2023-03-01T10:43:01;4.38;;;2.67;;
10705;SDS011;5404;42.656;23.336;2023-03-01T10:48:14;4.50;;;2.83;;
10705;SDS011;5404;42.656;23.336;2023-03-01T10:50:42;3.88;;;2.78;;
10705;SDS011;5404;42.656;23.336;2023-03-01T10:53:32;5.05;;;2.50;;
10705;SDS011;5404;42.656;23.336;2023-03-01T10:56:03;4.88;;;3.22;;
10705;SDS011;5404;42.656;23.336;2023-03-01T10:58:31;5.13;;;3.00;;
10705;SDS011;5404;42.656;23.336;2023-03-01T11:01:00;7.95;;;2.90;;
10705;SDS011;5404;42.656;23.336;2023-03-01T11:03:32;3.45;;;2.72;;
10705;SDS011;5404;42.656;23.336;2023-03-01T11:08:42;4.90;;;2.80;;
10705;SDS011;5404;42.656;23.336;2023-03-01T11:13:39;2.97;;;2.60;;
10705;SDS011;5404;42.656;23.336;2023-03-01T11:16:30;7.60;;;3.65;;
10705;SDS011;5404;42.656;23.336;2023-03-01T11:21:34;9.55;;;4.07;;
10705;SDS011;5404;42.656;23.336;2023-03-01T11:24:04;8.32;;;4.00;;
10705;SDS011;5404;42.656;23.336;2023-03-01T11:26:36;8.80;;;3.75;;
10705;SDS011;5404;42.656;23.336;2023-03-01T11:29:16;8.10;;;3.45;;
10705;SDS011;5404;42.656;23.336;2023-03-01T11:31:51;11.07;;;3.15;;
10705;SDS011;5404;42.656;23.336;2023-03-01T11:34:19;6.88;;;2.90;;
10705;SDS011;5404;42.656;23.336;2023-03-01T11:36:54;10.38;;;3.50;;
10705;SDS011;5404;42.656;23.336;2023-03-01T11:39:27;8.13;;;3.40;;
10705;SDS011;5404;42.656;23.336;2023-03-01T11:42:01;3.90;;;3.03;;
10705;SDS011;5404;42.656;23.336;2023-03-01T11:44:36;6.25;;;3.53;;
10705;SDS011;5404;42.656;23.336;2023-03-01T11:50:59;4.57;;;3.22;;
10705;SDS011;5404;42.656;23.336;2023-03-01T11:53:18;9.50;;;4.10;;
10705;SDS011;5404;42.656;23.336;2023-03-01T12:07:17;7.45;;;3.58;;
10705;SDS011;5404;42.656;23.336;2023-03-01T12:10:52;8.50;;;4.22;;
10705;SDS011;5404;42.656;23.336;2023-03-01T12:13:19;5.80;;;3.95;;
10705;SDS011;5404;42.656;23.336;2023-03-01T12:15:58;6.70;;;3.92;;
10705;SDS011;5404;42.656;23.336;2023-03-01T12:38:49;8.05;;;4.32;;
10705;SDS011;5404;42.656;23.336;2023-03-01T12:41:24;11.73;;;4.40;;
10705;SDS011;5404;42.656;23.336;2023-03-01T12:44:14;5.97;;;4.20;;
10705;SDS011;5404;42.656;23.336;2023-03-01T12:50:04;8.63;;;4.32;;
10705;SDS011;5404;42.656;23.336;2023-03-01T12:52:40;9.05;;;4.65;;
10705;SDS011;5404;42.656;23.336;2023-03-01T13:01:14;11.43;;;5.45;;
10705;SDS011;5404;42.656;23.336;2023-03-01T13:04:06;3.95;;;2.97;;
10705;SDS011;5404;42.656;23.336;2023-03-01T13:06:43;5.47;;;4.30;;
10705;SDS011;5404;42.656;23.336;2023-03-01T13:09:37;6.90;;;4.32;;
10705;SDS011;5404;42.656;23.336;2023-03-01T13:12:41;13.27;;;5.43;;
10705;SDS011;5404;42.656;23.336;2023-03-01T13:20:19;7.55;;;3.88;;
10705;SDS011;5404;42.656;23.336;2023-03-01T13:22:49;7.50;;;4.80;;
10705;SDS011;5404;42.656;23.336;2023-03-01T13:25:26;11.88;;;4.82;;
10705;SDS011;5404;42.656;23.336;2023-03-01T13:27:52;10.32;;;5.85;;
10705;SDS011;5404;42.656;23.336;2023-03-01T13:30:55;8.52;;;4.85;;
10705;SDS011;5404;42.656;23.336;2023-03-01T13:35:56;10.85;;;4.97;;
10705;SDS011;5404;42.656;23.336;2023-03-01T13:44:20;8.70;;;4.68;;
10705;SDS011;5404;42.656;23.336;2023-03-01T13:46:53;8.40;;;5.00;;
10705;SDS011;5404;42.656;23.336;2023-03-01T13:55:21;17.25;;;6.22;;
10705;SDS011;5404;42.656;23.336;2023-03-01T13:57:51;9.85;;;6.07;;
10705;SDS011;5404;42.656;23.336;2023-03-01T14:00:26;10.30;;;5.80;;
10705;SDS011;5404;42.656;23.336;2023-03-01T14:05:42;10.82;;;6.57;;
10705;SDS011;5404;42.656;23.336;2023-03-01T14:08:23;16.73;;;5.35;;
10705;SDS011;5404;42.656;23.336;2023-03-01T14:13:47;7.90;;;4.90;;
10705;SDS011;5404;42.656;23.336;2023-03-01T14:24:28;6.68;;;4.68;;
10705;SDS011;5404;42.656;23.336;2023-03-01T14:27:00;10.85;;;4.88;;
10705;SDS011;5404;42.656;23.336;2023-03-01T14:34:58;8.40;;;3.70;;
10705;SDS011;5404;42.656;23.336;2023-03-01T14:37:32;5.97;;;3.90;;
10705;SDS011;5404;42.656;23.336;2023-03-01T14:40:03;6.72;;;4.18;;
10705;SDS011;5404;42.656;23.336;2023-03-01T14:42:33;11.10;;;4.50;;
10705;SDS011;5404;42.656;23.336;2023-03-01T14:45:02;7.38;;;4.30;;
10705;SDS011;5404;42.656;23.336;2023-03-01T14:47:32;9.73;;;5.00;;
10705;SDS011;5404;42.656;23.336;2023-03-01T14:52:41;15.73;;;6.00;;
10705;SDS011;5404;42.656;23.336;2023-03-01T14:55:20;12.00;;;4.05;;
10705;SDS011;5404;42.656;23.336;2023-03-01T14:57:50;7.57;;;3.80;;
10705;SDS011;5404;42.656;23.336;2023-03-01T15:00:24;6.13;;;3.33;;
10705;SDS011;5404;42.656;23.336;2023-03-01T15:02:53;4.53;;;2.60;;
10705;SDS011;5404;42.656;23.336;2023-03-01T15:05:39;6.90;;;3.90;;
10705;SDS011;5404;42.656;23.336;2023-03-01T15:08:08;6.38;;;3.58;;
10705;SDS011;5404;42.656;23.336;2023-03-01T15:10:55;8.23;;;4.50;;
10705;SDS011;5404;42.656;23.336;2023-03-01T15:13:34;7.25;;;4.43;;
10705;SDS011;5404;42.656;23.336;2023-03-01T15:16:19;12.75;;;5.15;;
10705;SDS011;5404;42.656;23.336;2023-03-01T15:18:53;9.48;;;5.47;;
10705;SDS011;5404;42.656;23.336;2023-03-01T15:21:22;14.63;;;6.13;;
10705;SDS011;5404;42.656;23.336;2023-03-01T15:24:41;12.60;;;6.13;;
10705;SDS011;5404;42.656;23.336;2023-03-01T15:26:51;8.80;;;4.75;;
10705;SDS011;5404;42.656;23.336;2023-03-01T15:29:26;11.30;;;5.30;;
10705;SDS011;5404;42.656;23.336;2023-03-01T15:32:03;8.27;;;5.05;;
10705;SDS011;5404;42.656;23.336;2023-03-01T15:34:47;9.93;;;5.68;;
10705;SDS011;5404;42.656;23.336;2023-03-01T15:40:25;10.25;;;5.25;;
10705;SDS011;5404;42.656;23.336;2023-03-01T15:42:59;10.23;;;4.82;;
10705;SDS011;5404;42.656;23.336;2023-03-01T15:45:26;10.93;;;5.18;;
10705;SDS011;5404;42.656;23.336;2023-03-01T15:47:55;7.82;;;5.18;;
10705;SDS011;5404;42.656;23.336;2023-03-01T15:50:29;11.90;;;6.15;;
10705;SDS011;5404;42.656;23.336;2023-03-01T15:52:58;12.93;;;7.18;;
10705;SDS011;5404;42.656;23.336;2023-03-01T15:55:29;16.25;;;7.43;;
10705;SDS011;5404;42.656;23.336;2023-03-01T16:00:44;15.80;;;7.63;;
10705;SDS011;5404;42.656;23.336;2023-03-01T16:03:12;13.07;;;6.72;;
10705;SDS011;5404;42.656;23.336;2023-03-01T16:05:40;12.20;;;6.03;;
10705;SDS011;5404;42.656;23.336;2023-03-01T16:08:08;13.63;;;7.55;;
10705;SDS011;5404;42.656;23.336;2023-03-01T16:10:34;15.23;;;6.10;;
10705;SDS011;5404;42.656;23.336;2023-03-01T16:13:00;13.05;;;5.32;;
10705;SDS011;5404;42.656;23.336;2023-03-01T16:15:27;10.75;;;6.07;;
10705;SDS011;5404;42.656;23.336;2023-03-01T16:17:54;9.82;;;5.57;;
10705;SDS011;5404;42.656;23.336;2023-03-01T16:20:21;19.50;;;7.50;;
10705;SDS011;5404;42.656;23.336;2023-03-01T16:22:47;12.77;;;5.40;;
10705;SDS011;5404;42.656;23.336;2023-03-01T16:25:14;9.55;;;5.25;;
10705;SDS011;5404;42.656;23.336;2023-03-01T16:27:45;9.02;;;5.65;;
10705;SDS011;5404;42.656;23.336;2023-03-01T16:30:11;11.18;;;5.63;;
10705;SDS011;5404;42.656;23.336;2023-03-01T16:32:40;12.65;;;4.95;;
10705;SDS011;5404;42.656;23.336;2023-03-01T16:35:08;10.48;;;5.20;;
10705;SDS011;5404;42.656;23.336;2023-03-01T16:37:35;10.85;;;5.35;;
10705;SDS011;5404;42.656;23.336;2023-03-01T16:40:01;10.98;;;4.45;;
10705;SDS011;5404;42.656;23.336;2023-03-01T16:42:32;10.07;;;5.70;;
10705;SDS011;5404;42.656;23.336;2023-03-01T16:44:58;12.10;;;6.50;;
10705;SDS011;5404;42.656;23.336;2023-03-01T16:47:26;9.50;;;5.00;;
10705;SDS011;5404;42.656;23.336;2023-03-01T16:49:52;8.98;;;4.90;;
10705;SDS011;5404;42.656;23.336;2023-03-01T16:52:18;14.73;;;5.95;;
10705;SDS011;5404;42.656;23.336;2023-03-01T16:57:12;10.20;;;4.68;;
10705;SDS011;5404;42.656;23.336;2023-03-01T16:59:38;15.73;;;6.75;;
10705;SDS011;5404;42.656;23.336;2023-03-01T17:02:04;9.20;;;4.82;;
10705;SDS011;5404;42.656;23.336;2023-03-01T17:04:31;14.43;;;6.07;;
10705;SDS011;5404;42.656;23.336;2023-03-01T17:06:56;12.75;;;5.90;;
10705;SDS011;5404;42.656;23.336;2023-03-01T17:09:22;11.75;;;5.00;;
10705;SDS011;5404;42.656;23.336;2023-03-01T17:11:48;15.85;;;6.25;;
10705;SDS011;5404;42.656;23.336;2023-03-01T17:14:14;11.77;;;4.32;;
10705;SDS011;5404;42.656;23.336;2023-03-01T17:16:43;10.50;;;3.55;;
10705;SDS011;5404;42.656;23.336;2023-03-01T17:19:09;10.45;;;5.70;;